createdAt,value
2022-09-03T00:02:13.354Z,72.42
2022-09-03T00:05:23.504Z,72.42
2022-09-03T00:08:28.345Z,72.80
2022-09-03T00:11:19.418Z,72.62
2022-09-03T00:14:12.934Z,72.62
2022-09-03T00:17:07.645Z,72.21
2022-09-03T00:20:20.358Z,72.80
2022-09-03T00:23:12.242Z,73.10
2022-09-03T00:26:17.715Z,72.65
2022-09-03T00:29:16.266Z,72.73
2022-09-03T00:32:11.107Z,73.19
2022-09-03T00:35:03.406Z,73.29
2022-09-03T00:37:52.984Z,73.19
2022-09-03T00:41:08.783Z,72.88
2022-09-03T00:44:36.151Z,73.14
2022-09-03T00:47:24.901Z,73.38
2022-09-03T00:50:40.191Z,74.06
2022-09-03T00:53:39.219Z,74.20
2022-09-03T00:56:41.404Z,74.08
2022-09-03T01:00:03.779Z,74.51
2022-09-03T01:03:23.106Z,74.60
2022-09-03T01:06:28.066Z,75.61
2022-09-03T01:10:01.306Z,75.68
2022-09-03T01:13:13.440Z,75.93
2022-09-03T01:16:16.150Z,76.40
2022-09-03T01:19:28.958Z,75.93
2022-09-03T01:22:44.205Z,74.53
2022-09-03T01:25:51.676Z,74.41
2022-09-03T01:29:00.928Z,74.61
2022-09-03T01:31:47.869Z,73.19
2022-09-03T01:34:48.409Z,73.12
2022-09-03T01:37:38.327Z,72.89
2022-09-03T01:40:51.723Z,72.29
2022-09-03T01:43:51.856Z,72.27
2022-09-03T01:46:46.000Z,73.24
2022-09-03T01:49:45.407Z,73.44
2022-09-03T01:53:06.321Z,73.49
2022-09-03T01:56:43.020Z,74.20
2022-09-03T01:59:59.866Z,74.40
2022-09-03T02:02:51.209Z,74.19
2022-09-03T02:05:39.263Z,73.45
2022-09-03T02:08:26.246Z,73.44
2022-09-03T02:11:13.455Z,73.33
2022-09-03T02:14:00.940Z,73.18
2022-09-03T02:16:47.907Z,73.63
2022-09-03T02:19:37.730Z,73.34
2022-09-03T02:22:24.948Z,73.65
2022-09-03T02:25:12.134Z,73.73
2022-09-03T02:28:00.381Z,73.75
2022-09-03T02:30:48.414Z,74.43
2022-09-03T02:33:39.237Z,74.27
2022-09-03T02:36:31.884Z,73.55
2022-09-03T02:39:18.908Z,73.38
2022-09-03T02:42:06.413Z,73.46
2022-09-03T02:45:08.297Z,73.25
2022-09-03T02:47:58.957Z,73.26
2022-09-03T02:50:45.952Z,73.24
2022-09-03T02:53:32.932Z,73.02
2022-09-03T02:56:19.986Z,73.46
2022-09-03T02:59:09.261Z,74.19
2022-09-03T03:01:56.250Z,74.27
2022-09-03T03:04:48.073Z,74.57
2022-09-03T03:07:39.297Z,74.89
2022-09-03T03:10:26.269Z,75.49
2022-09-03T03:13:14.320Z,75.54
2022-09-03T03:16:04.172Z,75.28
2022-09-03T03:18:52.839Z,75.41
2022-09-03T03:21:40.341Z,75.97
2022-09-03T03:24:27.357Z,75.53
2022-09-03T03:27:15.012Z,75.40
2022-09-03T03:30:02.006Z,74.77
2022-09-03T03:32:49.057Z,75.00
2022-09-03T03:35:36.764Z,75.62
2022-09-03T03:38:23.831Z,75.93
2022-09-03T03:41:13.375Z,75.92
2022-09-03T03:44:05.461Z,75.92
2022-09-03T03:46:52.452Z,75.88
2022-09-03T03:49:39.435Z,76.24
2022-09-03T03:52:28.259Z,76.04
2022-09-03T03:55:15.928Z,75.90
2022-09-03T03:58:03.129Z,76.13
2022-09-03T04:00:53.274Z,76.01
2022-09-03T04:03:40.957Z,76.52
2022-09-03T04:06:28.801Z,77.27
2022-09-03T04:09:15.837Z,77.04
2022-09-03T04:12:03.919Z,78.20
2022-09-03T04:14:50.870Z,78.21
2022-09-03T04:17:37.853Z,78.50
2022-09-03T04:20:24.898Z,79.16
2022-09-03T04:23:12.786Z,78.22
2022-09-03T04:25:59.967Z,79.45
2022-09-03T04:28:47.030Z,79.60
2022-09-03T04:31:36.438Z,79.43
2022-09-03T04:34:24.394Z,79.15
2022-09-03T04:37:12.104Z,79.24
2022-09-03T04:39:59.270Z,79.36
2022-09-03T04:42:46.344Z,78.86
2022-09-03T04:45:33.406Z,78.90
2022-09-03T04:48:20.350Z,79.28
2022-09-03T04:51:16.106Z,79.17
2022-09-03T04:54:03.165Z,79.39
2022-09-03T04:56:50.109Z,79.22
2022-09-03T04:59:37.222Z,79.15
2022-09-03T05:02:24.295Z,79.50
2022-09-03T05:05:11.269Z,78.92
2022-09-03T05:07:59.101Z,78.90
2022-09-03T05:10:46.049Z,79.00
2022-09-03T05:13:34.710Z,78.97
2022-09-03T05:16:23.787Z,78.80
2022-09-03T05:19:10.950Z,77.94
2022-09-03T05:21:57.958Z,78.12
2022-09-03T05:24:44.930Z,78.29
2022-09-03T05:27:32.323Z,77.92
2022-09-03T05:30:19.350Z,77.60
2022-09-03T05:33:06.299Z,77.66
2022-09-03T05:36:01.789Z,77.09
2022-09-03T05:38:49.209Z,77.02
2022-09-03T05:41:36.266Z,76.79
2022-09-03T05:44:24.043Z,77.46
2022-09-03T05:47:11.574Z,77.40
2022-09-03T05:49:58.827Z,76.69
2022-09-03T05:52:45.805Z,76.39
2022-09-03T05:55:33.255Z,76.02
2022-09-03T05:58:20.266Z,75.26
2022-09-03T06:01:17.917Z,74.70
2022-09-03T06:04:13.053Z,74.38
2022-09-03T06:07:00.021Z,74.40
2022-09-03T06:09:47.015Z,74.22
2022-09-03T06:12:33.985Z,73.90
2022-09-03T06:15:20.965Z,73.87
2022-09-03T06:18:07.961Z,74.03
2022-09-03T06:20:59.494Z,74.05
2022-09-03T06:23:56.665Z,73.29
2022-09-03T06:26:47.002Z,72.61
2022-09-03T06:29:35.640Z,72.38
2022-09-03T06:32:22.746Z,71.71
2022-09-03T06:35:10.037Z,70.76
2022-09-03T06:37:56.970Z,70.54
2022-09-03T06:40:47.406Z,70.69
2022-09-03T06:43:36.429Z,70.47
2022-09-03T06:46:24.118Z,69.18
2022-09-03T06:49:12.046Z,69.03
2022-09-03T06:51:59.036Z,69.14
2022-09-03T06:54:46.022Z,68.00
2022-09-03T06:57:33.089Z,68.35
2022-09-03T07:00:21.356Z,68.21
2022-09-03T07:03:08.273Z,67.85
2022-09-03T07:06:00.835Z,66.96
2022-09-03T07:08:47.802Z,66.68
2022-09-03T07:11:36.108Z,66.27
2022-09-03T07:14:23.393Z,65.79
2022-09-03T07:17:10.734Z,65.09
2022-09-03T07:19:58.332Z,64.84
2022-09-03T07:22:45.608Z,64.92
2022-09-03T07:25:33.001Z,64.14
2022-09-03T07:28:20.125Z,64.22
2022-09-03T07:31:08.763Z,64.04
2022-09-03T07:34:00.881Z,63.88
2022-09-03T07:36:51.150Z,62.90
2022-09-03T07:39:38.567Z,62.43
2022-09-03T07:42:27.927Z,62.41
2022-09-03T07:45:15.138Z,61.75
2022-09-03T07:48:02.339Z,61.63
2022-09-03T07:50:49.386Z,61.25
2022-09-03T07:53:36.841Z,61.68
2022-09-03T07:56:24.815Z,61.80
2022-09-03T07:59:12.168Z,60.71
2022-09-03T08:01:59.210Z,60.92
2022-09-03T08:04:46.301Z,60.05
2022-09-03T08:07:33.252Z,59.88
2022-09-03T08:10:21.594Z,59.25
2022-09-03T08:13:08.635Z,58.67
2022-09-03T08:15:57.202Z,58.24
2022-09-03T08:18:44.448Z,57.95
2022-09-03T08:21:32.078Z,57.46
2022-09-03T08:24:21.955Z,57.43
2022-09-03T08:27:09.418Z,56.41
2022-09-03T08:29:56.540Z,56.82
2022-09-03T08:32:43.962Z,56.59
2022-09-03T08:35:34.434Z,56.35
2022-09-03T08:38:21.626Z,55.13
2022-09-03T08:41:16.949Z,54.89
2022-09-03T08:44:17.620Z,54.59
2022-09-03T08:47:13.892Z,54.11
2022-09-03T08:50:12.751Z,53.81
2022-09-03T08:53:21.329Z,53.83
2022-09-03T08:56:13.385Z,52.90
2022-09-03T08:59:01.929Z,53.30
2022-09-03T09:01:59.380Z,52.78
2022-09-03T09:04:49.230Z,51.94
2022-09-03T09:07:45.051Z,51.07
2022-09-03T09:10:44.500Z,50.99
2022-09-03T09:13:39.030Z,49.54
2022-09-03T09:17:14.172Z,50.42
2022-09-03T09:20:08.201Z,50.28
2022-09-03T09:23:03.754Z,49.41
2022-09-03T09:25:51.628Z,49.95
2022-09-03T09:28:39.753Z,50.14
2022-09-03T09:31:28.583Z,48.87
2022-09-03T09:34:15.595Z,48.50
2022-09-03T09:37:06.207Z,48.50
2022-09-03T09:40:00.997Z,48.48
2022-09-03T09:42:48.074Z,48.47
2022-09-03T09:45:35.350Z,47.55
2022-09-03T09:48:26.510Z,46.97
2022-09-03T09:51:19.594Z,46.17
2022-09-03T09:54:27.978Z,46.44
2022-09-03T09:57:20.253Z,45.42
2022-09-03T10:00:13.486Z,45.58
2022-09-03T10:03:02.143Z,45.50
2022-09-03T10:06:28.058Z,45.82
2022-09-03T10:09:20.513Z,46.34
2022-09-03T10:12:26.448Z,44.66
2022-09-03T10:15:51.722Z,44.72
2022-09-03T10:19:09.639Z,45.07
2022-09-03T10:22:26.414Z,43.96
2022-09-03T10:25:26.511Z,43.60
2022-09-03T10:28:17.059Z,43.40
2022-09-03T10:31:33.637Z,43.70
2022-09-03T10:34:53.345Z,43.39
2022-09-03T10:37:53.473Z,42.89
2022-09-03T10:40:57.977Z,43.73
2022-09-03T10:44:41.095Z,42.50
2022-09-03T10:48:14.781Z,42.72
2022-09-03T10:51:22.955Z,42.10
2022-09-03T10:54:38.671Z,41.67
2022-09-03T10:57:51.899Z,41.69
2022-09-03T11:00:54.385Z,41.04
2022-09-03T11:04:04.770Z,41.30
2022-09-03T11:06:53.550Z,41.88
2022-09-03T11:10:11.459Z,40.96
2022-09-03T11:13:24.000Z,41.24
2022-09-03T11:16:26.094Z,39.88
2022-09-03T11:19:20.676Z,39.88
2022-09-03T11:22:11.096Z,40.20
2022-09-03T11:25:02.923Z,41.74
2022-09-03T11:28:08.291Z,40.72
2022-09-03T11:31:36.823Z,40.54
2022-09-03T11:34:31.878Z,40.43
2022-09-03T11:37:30.663Z,40.83
2022-09-03T11:40:19.546Z,40.89
2022-09-03T11:43:29.732Z,39.62
2022-09-03T11:46:23.535Z,39.37
2022-09-03T11:49:15.369Z,40.50
2022-09-03T11:52:11.105Z,38.94
2022-09-03T11:54:58.916Z,38.72
2022-09-03T11:57:46.687Z,39.14
2022-09-03T12:00:38.680Z,38.33
2022-09-03T12:03:30.909Z,39.53
2022-09-03T12:06:52.364Z,39.29
2022-09-03T12:09:48.112Z,39.05
2022-09-03T12:12:59.916Z,38.79
2022-09-03T12:15:47.302Z,38.58
2022-09-03T12:18:37.023Z,38.37
2022-09-03T12:21:25.953Z,38.54
2022-09-03T12:24:19.538Z,37.78
2022-09-03T12:27:10.749Z,37.76
2022-09-03T12:30:00.438Z,37.91
2022-09-03T12:32:48.503Z,37.41
2022-09-03T12:39:10.006Z,38.14
2022-09-03T12:41:57.344Z,38.24
2022-09-03T12:44:45.414Z,37.07
2022-09-03T12:47:42.972Z,38.61
2022-09-03T12:50:30.855Z,37.82
2022-09-03T12:53:25.116Z,38.17
2022-09-03T12:56:16.768Z,38.07
2022-09-03T12:59:12.129Z,39.47
2022-09-03T13:02:12.806Z,38.30
2022-09-03T13:05:01.478Z,39.62
2022-09-03T13:07:55.626Z,39.83
2022-09-03T13:10:44.168Z,38.93
2022-09-03T13:13:34.125Z,39.76
2022-09-03T13:16:50.345Z,39.41
2022-09-03T13:20:03.233Z,39.93
2022-09-03T13:23:18.749Z,39.67
2022-09-03T13:26:12.998Z,39.38
2022-09-03T13:29:24.778Z,38.81
2022-09-03T13:32:19.697Z,38.86
2022-09-03T13:35:47.293Z,37.22
2022-09-03T13:38:51.733Z,38.12
2022-09-03T13:41:49.563Z,38.49
2022-09-03T13:44:59.175Z,37.69
2022-09-03T13:48:29.913Z,37.65
2022-09-03T13:51:20.780Z,37.94
2022-09-03T13:54:47.796Z,37.95
2022-09-03T13:57:39.921Z,37.82
2022-09-03T14:00:38.622Z,38.53
2022-09-03T14:03:49.023Z,38.02
2022-09-03T14:06:45.224Z,39.19
2022-09-03T14:09:50.816Z,37.99
2022-09-03T14:13:06.523Z,38.62
2022-09-03T14:16:40.675Z,37.65
2022-09-03T14:19:53.987Z,38.65
2022-09-03T14:22:52.106Z,38.69
2022-09-03T14:25:42.785Z,39.01
2022-09-03T14:28:49.867Z,38.91
2022-09-03T14:31:59.487Z,39.60
2022-09-03T14:35:00.463Z,39.56
2022-09-03T14:38:06.130Z,40.50
2022-09-03T14:41:14.417Z,38.83
2022-09-03T14:44:38.951Z,38.15
2022-09-03T14:47:44.878Z,38.89
2022-09-03T14:50:55.286Z,38.68
2022-09-03T14:53:55.763Z,38.81
2022-09-03T14:57:13.279Z,39.07
2022-09-03T15:00:20.118Z,37.95
2022-09-03T15:03:22.595Z,38.77
2022-09-03T15:06:28.131Z,38.47
2022-09-03T15:09:50.742Z,39.03
2022-09-03T15:12:42.690Z,38.69
2022-09-03T15:15:48.553Z,38.96
2022-09-03T15:18:53.824Z,38.35
2022-09-03T15:21:52.828Z,39.29
2022-09-03T15:24:42.908Z,38.20
2022-09-03T15:27:42.062Z,37.71
2022-09-03T15:30:50.554Z,38.60
2022-09-03T15:33:45.357Z,37.47
2022-09-03T15:36:40.414Z,38.12
2022-09-03T15:39:39.230Z,37.50
2022-09-03T15:42:28.691Z,37.63
2022-09-03T15:45:31.544Z,37.72
2022-09-03T15:48:27.958Z,37.07
2022-09-03T15:51:25.520Z,36.93
2022-09-03T15:57:10.111Z,37.47
2022-09-03T16:00:07.689Z,37.08
2022-09-03T16:03:23.893Z,37.05
2022-09-03T16:06:39.904Z,37.32
2022-09-03T16:10:07.675Z,38.93
2022-09-03T16:13:06.648Z,39.41
2022-09-03T16:16:11.312Z,39.49
2022-09-03T16:19:05.590Z,37.96
2022-09-03T16:22:02.318Z,38.32
2022-09-03T16:24:59.135Z,37.63
2022-09-03T16:28:10.252Z,38.00
2022-09-03T16:31:00.310Z,38.43
2022-09-03T16:34:18.676Z,38.06
2022-09-03T16:37:29.221Z,37.92
2022-09-03T16:40:52.048Z,38.43
2022-09-03T16:43:59.846Z,38.19
2022-09-03T16:47:07.622Z,38.16
2022-09-03T16:50:29.546Z,38.86
2022-09-03T16:53:34.127Z,39.01
2022-09-03T16:56:55.117Z,39.15
2022-09-03T17:00:29.666Z,39.28
2022-09-03T17:04:00.518Z,40.27
2022-09-03T17:07:12.722Z,40.38
2022-09-03T17:14:09.105Z,39.73
2022-09-03T17:17:05.934Z,41.79
2022-09-03T17:20:20.961Z,41.15
2022-09-03T17:23:09.842Z,40.60
2022-09-03T17:26:15.483Z,40.33
2022-09-03T17:29:08.849Z,40.71
2022-09-03T17:32:33.112Z,42.85
2022-09-03T17:35:38.839Z,42.87
2022-09-03T17:39:05.586Z,41.73
2022-09-03T17:41:59.908Z,42.81
2022-09-03T17:45:08.945Z,42.42
2022-09-03T17:48:05.617Z,42.47
2022-09-03T17:51:04.942Z,42.00
2022-09-03T17:54:06.368Z,42.86
2022-09-03T17:57:10.765Z,43.84
2022-09-03T18:00:46.555Z,43.13
2022-09-03T18:03:56.331Z,43.09
2022-09-03T18:06:59.278Z,43.67
2022-09-03T18:10:02.538Z,43.57
2022-09-03T18:13:13.658Z,44.05
2022-09-03T18:16:13.686Z,45.35
2022-09-03T18:19:07.019Z,44.50
2022-09-03T18:22:13.628Z,44.57
2022-09-03T18:29:19.053Z,45.77
2022-09-03T18:32:30.362Z,47.08
2022-09-03T18:39:09.294Z,46.88
2022-09-03T18:42:23.845Z,48.40
2022-09-03T18:46:34.199Z,48.89
2022-09-03T18:49:44.608Z,48.86
2022-09-03T18:53:15.757Z,49.65
2022-09-03T18:57:00.109Z,49.20
2022-09-03T19:00:28.780Z,49.93
2022-09-03T19:07:48.757Z,48.41
2022-09-03T19:11:05.374Z,48.92
2022-09-03T19:14:11.487Z,48.43
2022-09-03T19:17:52.130Z,48.41
2022-09-03T19:21:21.514Z,49.17
2022-09-03T19:24:27.233Z,49.78
2022-09-03T19:28:21.825Z,48.31
2022-09-03T19:31:46.027Z,48.99
2022-09-03T19:35:08.943Z,49.10
2022-09-03T19:38:38.651Z,49.22
2022-09-03T19:46:00.707Z,49.26
2022-09-03T19:49:25.476Z,49.46
2022-09-03T19:52:53.472Z,49.93
2022-09-03T19:56:09.087Z,49.67
2022-09-03T19:59:19.345Z,49.28
2022-09-03T20:02:25.211Z,48.83
2022-09-03T20:05:38.328Z,49.28
2022-09-03T20:08:44.499Z,50.09
2022-09-03T20:11:31.777Z,49.31
2022-09-03T20:14:19.859Z,48.94
2022-09-03T20:17:41.901Z,50.26
2022-09-03T20:20:42.021Z,50.29
2022-09-03T20:23:48.273Z,50.65
2022-09-03T20:27:05.391Z,51.72
2022-09-03T20:30:13.428Z,51.90
2022-09-03T20:33:12.829Z,52.42
2022-09-03T20:36:24.399Z,52.61
2022-09-03T20:39:27.744Z,53.05
2022-09-03T20:42:26.469Z,52.51
2022-09-03T20:45:18.459Z,53.58
2022-09-03T20:48:22.185Z,54.46
2022-09-03T20:51:22.347Z,54.75
2022-09-03T20:54:21.369Z,54.86
2022-09-03T20:57:14.692Z,55.71
2022-09-03T21:00:24.205Z,55.73
2022-09-03T21:03:18.383Z,56.39
2022-09-03T21:06:42.141Z,55.11
2022-09-03T21:09:38.370Z,55.88
2022-09-03T21:12:36.267Z,54.59
2022-09-03T21:15:51.176Z,55.56
2022-09-03T21:19:11.707Z,55.58
2022-09-03T21:22:47.393Z,56.93
2022-09-03T21:25:41.436Z,55.97
2022-09-03T21:29:00.493Z,56.95
2022-09-03T21:32:17.370Z,56.59
2022-09-03T21:39:12.156Z,57.09
2022-09-03T21:42:37.902Z,57.48
2022-09-03T21:45:53.968Z,58.97
2022-09-03T21:48:47.393Z,58.78
2022-09-03T21:51:53.325Z,58.07
2022-09-03T21:54:40.664Z,57.71
2022-09-03T21:58:04.605Z,57.85
2022-09-03T22:00:57.791Z,58.70
2022-09-03T22:03:44.828Z,59.65
2022-09-03T22:06:46.005Z,58.88
2022-09-03T22:09:41.985Z,59.67
2022-09-03T22:12:37.481Z,60.24
2022-09-03T22:15:24.929Z,59.65
2022-09-03T22:18:23.863Z,59.48
2022-09-03T22:21:19.798Z,60.94
2022-09-03T22:24:23.191Z,60.51
2022-09-03T22:27:44.958Z,61.71
2022-09-03T22:31:04.915Z,61.29
2022-09-03T22:34:03.723Z,62.10
2022-09-03T22:36:58.835Z,61.73
2022-09-03T22:39:47.255Z,61.91
2022-09-03T22:43:04.885Z,61.72
2022-09-03T22:46:04.088Z,62.80
2022-09-03T22:49:01.701Z,62.53
2022-09-03T22:52:06.374Z,62.17
2022-09-03T22:55:05.634Z,63.25
2022-09-03T22:57:56.293Z,64.16
2022-09-03T23:00:53.495Z,63.80
2022-09-03T23:03:48.420Z,65.50
2022-09-03T23:06:41.843Z,65.68
2022-09-03T23:09:33.741Z,65.63
2022-09-03T23:12:33.725Z,65.59
2022-09-03T23:15:29.605Z,65.05
2022-09-03T23:18:27.108Z,65.59
2022-09-03T23:21:25.279Z,65.33
2022-09-03T23:24:20.740Z,65.58
2022-09-03T23:27:15.037Z,65.59
2022-09-03T23:30:02.784Z,66.06
2022-09-03T23:32:55.246Z,66.16
2022-09-03T23:36:05.066Z,66.18
2022-09-03T23:39:15.000Z,67.23
2022-09-03T23:42:17.281Z,67.12
2022-09-03T23:45:23.718Z,66.71
2022-09-03T23:48:34.050Z,67.56
2022-09-03T23:51:33.590Z,67.77
2022-09-03T23:54:46.691Z,67.28
2022-09-03T23:57:36.649Z,68.01
